createdAt,value
2023-04-04T00:01:00.371Z,61.38
2023-04-04T00:03:31.167Z,61.38
2023-04-04T00:06:05.120Z,61.67
2023-04-04T00:08:35.722Z,61.83
2023-04-04T00:11:06.597Z,61.73
2023-04-04T00:13:37.608Z,61.73
2023-04-04T00:16:10.345Z,61.84
2023-04-04T00:18:41.293Z,62.03
2023-04-04T00:21:14.492Z,62.17
2023-04-04T00:23:45.176Z,62.51
2023-04-04T00:26:17.614Z,62.38
2023-04-04T00:28:48.387Z,62.42
2023-04-04T00:31:19.735Z,62.35
2023-04-04T00:33:50.735Z,62.51
2023-04-04T00:36:24.650Z,62.72
2023-04-04T00:38:55.226Z,62.80
2023-04-04T00:41:25.778Z,62.66
2023-04-04T00:43:58.636Z,62.58
2023-04-04T00:46:30.784Z,62.67
2023-04-04T00:49:01.384Z,62.70
2023-04-04T00:51:34.674Z,63.03
2023-04-04T00:54:06.140Z,62.90
2023-04-04T00:56:41.260Z,63.06
2023-04-04T00:59:11.850Z,62.95
2023-04-04T01:01:42.757Z,62.78
2023-04-04T01:04:13.943Z,62.92
2023-04-04T01:06:47.687Z,63.21
2023-04-04T01:09:18.521Z,63.42
2023-04-04T01:11:50.240Z,63.34
2023-04-04T01:14:21.193Z,63.40
2023-04-04T01:16:53.162Z,63.15
2023-04-04T01:19:33.413Z,63.21
2023-04-04T01:22:11.680Z,63.25
2023-04-04T01:24:45.344Z,63.54
2023-04-04T01:27:18.923Z,63.61
2023-04-04T01:29:57.959Z,63.23
2023-04-04T01:32:39.227Z,63.23
2023-04-04T01:35:21.521Z,63.33
2023-04-04T01:38:00.513Z,63.50
2023-04-04T01:40:37.972Z,63.45
2023-04-04T01:43:13.223Z,63.79
2023-04-04T01:45:46.412Z,63.72
2023-04-04T01:48:18.939Z,63.95
2023-04-04T01:50:53.904Z,63.71
2023-04-04T01:53:25.472Z,64.14
2023-04-04T01:55:56.823Z,64.10
2023-04-04T01:58:30.483Z,64.00
2023-04-04T02:01:01.495Z,64.03
2023-04-04T02:03:32.307Z,63.97
2023-04-04T02:06:03.067Z,63.93
2023-04-04T02:08:33.594Z,64.20
2023-04-04T02:11:04.379Z,64.33
2023-04-04T02:13:41.434Z,64.26
2023-04-04T02:16:13.810Z,64.28
2023-04-04T02:18:45.032Z,64.19
2023-04-04T02:21:16.038Z,64.30
2023-04-04T02:23:46.569Z,64.30
2023-04-04T02:26:18.163Z,64.21
2023-04-04T02:28:51.442Z,64.20
2023-04-04T02:31:23.261Z,64.36
2023-04-04T02:33:54.342Z,64.24
2023-04-04T02:36:25.572Z,64.31
2023-04-04T02:38:58.069Z,64.36
2023-04-04T02:41:30.620Z,64.35
2023-04-04T02:44:03.998Z,64.25
2023-04-04T02:46:36.129Z,64.19
2023-04-04T02:49:09.671Z,64.17
2023-04-04T02:51:43.585Z,64.04
2023-04-04T02:54:14.407Z,64.19
2023-04-04T02:56:48.017Z,64.17
2023-04-04T02:59:21.651Z,64.30
2023-04-04T03:01:52.426Z,64.58
2023-04-04T03:04:23.443Z,64.33
2023-04-04T03:06:54.253Z,64.43
2023-04-04T03:09:24.937Z,64.14
2023-04-04T03:11:55.567Z,64.28
2023-04-04T03:14:30.218Z,64.51
2023-04-04T03:17:01.873Z,64.50
2023-04-04T03:19:33.320Z,64.32
2023-04-04T03:22:04.014Z,64.54
2023-04-04T03:24:38.168Z,64.33
2023-04-04T03:27:09.714Z,64.29
2023-04-04T03:29:42.917Z,64.24
2023-04-04T03:32:13.771Z,64.49
2023-04-04T03:34:44.892Z,64.68
2023-04-04T03:37:15.695Z,64.27
2023-04-04T03:39:46.353Z,64.53
2023-04-04T03:42:17.129Z,64.49
2023-04-04T03:44:50.479Z,64.40
2023-04-04T03:47:30.694Z,64.51
2023-04-04T03:50:03.332Z,64.60
2023-04-04T03:52:34.910Z,64.45
2023-04-04T03:55:05.579Z,64.74
2023-04-04T03:57:36.715Z,64.75
2023-04-04T04:00:12.736Z,64.79
2023-04-04T04:02:43.412Z,65.24
2023-04-04T04:05:14.545Z,64.97
2023-04-04T04:07:47.230Z,64.99
2023-04-04T04:10:18.578Z,65.20
2023-04-04T04:12:49.656Z,64.78
2023-04-04T04:15:22.852Z,64.88
2023-04-04T04:17:53.666Z,64.98
2023-04-04T04:20:25.937Z,64.98
2023-04-04T04:22:57.517Z,64.73
2023-04-04T04:25:28.445Z,64.91
2023-04-04T04:28:12.637Z,64.94
2023-04-04T04:30:46.499Z,65.09
2023-04-04T04:33:19.435Z,64.99
2023-04-04T04:36:03.275Z,65.31
2023-04-04T04:38:43.056Z,65.25
2023-04-04T04:41:14.248Z,65.54
2023-04-04T04:43:49.323Z,65.56
2023-04-04T04:46:22.617Z,65.51
2023-04-04T04:48:54.176Z,65.49
2023-04-04T04:51:30.005Z,65.60
2023-04-04T04:54:02.639Z,65.58
2023-04-04T04:56:34.789Z,65.63
2023-04-04T04:59:13.028Z,65.62
2023-04-04T05:01:49.623Z,65.67
2023-04-04T05:04:20.575Z,65.86
2023-04-04T05:07:08.464Z,65.46
2023-04-04T05:09:39.390Z,65.46
2023-04-04T05:12:10.162Z,65.77
2023-04-04T05:14:44.958Z,65.78
2023-04-04T05:17:18.629Z,65.92
2023-04-04T05:19:49.656Z,65.67
2023-04-04T05:22:24.574Z,65.83
2023-04-04T05:24:57.019Z,66.23
2023-04-04T05:27:29.673Z,66.26
2023-04-04T05:30:04.064Z,65.98
2023-04-04T05:32:50.378Z,65.95
2023-04-04T05:35:26.766Z,65.81
2023-04-04T05:37:59.145Z,65.87
2023-04-04T05:40:29.883Z,66.08
2023-04-04T05:43:09.704Z,65.75
2023-04-04T05:45:59.345Z,65.66
2023-04-04T05:48:34.241Z,65.59
2023-04-04T05:51:05.361Z,65.95
2023-04-04T05:53:47.930Z,65.28
2023-04-04T05:56:25.135Z,64.28
2023-04-04T05:58:58.120Z,63.32
2023-04-04T06:01:31.750Z,62.80
2023-04-04T06:04:08.099Z,62.48
2023-04-04T06:06:39.332Z,62.27
2023-04-04T06:09:10.180Z,62.27
2023-04-04T06:11:41.537Z,62.66
2023-04-04T06:14:15.285Z,63.58
2023-04-04T06:16:47.277Z,62.83
2023-04-04T06:19:21.880Z,62.69
2023-04-04T06:21:52.633Z,62.47
2023-04-04T06:24:23.481Z,61.98
2023-04-04T06:26:54.438Z,61.56
2023-04-04T06:29:28.324Z,61.76
2023-04-04T06:32:02.448Z,61.93
2023-04-04T06:34:43.029Z,62.54
2023-04-04T06:37:15.110Z,62.75
2023-04-04T06:39:55.313Z,63.18
2023-04-04T06:42:29.055Z,63.19
2023-04-04T06:45:03.603Z,63.07
2023-04-04T06:47:35.410Z,63.04
2023-04-04T06:50:10.228Z,62.86
2023-04-04T06:52:41.146Z,62.87
2023-04-04T06:55:12.053Z,62.91
2023-04-04T06:57:43.338Z,63.39
2023-04-04T07:00:16.234Z,63.38
2023-04-04T07:02:47.496Z,63.24
2023-04-04T07:05:20.813Z,63.71
2023-04-04T07:07:54.962Z,63.35
2023-04-04T07:10:25.628Z,63.23
2023-04-04T07:12:56.294Z,63.23
2023-04-04T07:15:28.228Z,63.07
2023-04-04T07:17:58.996Z,62.79
2023-04-04T07:20:32.436Z,62.67
2023-04-04T07:23:03.212Z,62.85
2023-04-04T07:25:33.851Z,62.82
2023-04-04T07:28:12.485Z,62.98
2023-04-04T07:30:44.071Z,62.87
2023-04-04T07:33:14.661Z,62.72
2023-04-04T07:35:48.709Z,62.60
2023-04-04T07:38:19.360Z,62.45
2023-04-04T07:40:51.777Z,62.61
2023-04-04T07:43:23.007Z,62.12
2023-04-04T07:45:53.704Z,62.01
2023-04-04T07:48:24.586Z,61.90
2023-04-04T07:50:57.881Z,62.06
2023-04-04T07:53:28.621Z,61.93
2023-04-04T07:55:59.645Z,61.81
2023-04-04T07:58:30.563Z,61.68
2023-04-04T08:01:01.463Z,61.51
2023-04-04T08:03:33.109Z,61.44
2023-04-04T08:06:06.927Z,61.47
2023-04-04T08:08:37.762Z,61.01
2023-04-04T08:11:08.869Z,61.03
2023-04-04T08:13:39.590Z,61.01
2023-04-04T08:16:10.772Z,60.80
2023-04-04T08:18:41.434Z,61.17
2023-04-04T08:21:14.752Z,60.69
2023-04-04T08:23:45.299Z,59.46
2023-04-04T08:26:15.996Z,59.73
2023-04-04T08:28:46.778Z,59.00
2023-04-04T08:31:17.709Z,59.87
2023-04-04T08:33:48.431Z,59.75
2023-04-04T08:36:21.818Z,59.22
2023-04-04T08:38:52.709Z,59.09
2023-04-04T08:41:25.389Z,57.72
2023-04-04T08:43:57.651Z,58.14
2023-04-04T08:46:30.333Z,58.55
2023-04-04T08:49:02.314Z,58.99
2023-04-04T08:51:37.412Z,58.55
2023-04-04T08:54:09.633Z,58.48
2023-04-04T08:56:40.437Z,58.76
2023-04-04T08:59:11.791Z,58.26
2023-04-04T09:01:43.211Z,58.19
2023-04-04T09:04:14.615Z,57.42
2023-04-04T09:06:48.571Z,57.55
2023-04-04T09:09:20.272Z,56.95
2023-04-04T09:11:52.212Z,58.03
2023-04-04T09:14:24.243Z,57.60
2023-04-04T09:16:55.135Z,57.27
2023-04-04T09:19:26.576Z,56.79
2023-04-04T09:22:01.037Z,56.05
2023-04-04T09:24:40.541Z,51.90
2023-04-04T09:27:12.486Z,56.90
2023-04-04T09:29:44.392Z,57.53
2023-04-04T09:32:18.928Z,56.65
2023-04-04T09:34:49.945Z,57.19
2023-04-04T09:37:23.309Z,55.59
2023-04-04T09:39:55.055Z,56.03
2023-04-04T09:42:27.306Z,56.23
2023-04-04T09:44:58.713Z,56.46
2023-04-04T09:47:33.508Z,55.86
2023-04-04T09:50:11.622Z,56.49
2023-04-04T09:52:45.009Z,53.95
2023-04-04T09:55:15.900Z,54.34
2023-04-04T09:57:46.966Z,54.88
2023-04-04T10:00:23.434Z,54.92
2023-04-04T10:02:58.488Z,54.51
2023-04-04T10:05:29.155Z,54.32
2023-04-04T10:08:02.512Z,54.44
2023-04-04T10:10:34.584Z,54.78
2023-04-04T10:13:05.704Z,55.29
2023-04-04T10:15:40.050Z,55.70
2023-04-04T10:18:10.870Z,50.76
2023-04-04T10:20:41.601Z,55.52
2023-04-04T10:23:17.444Z,53.86
2023-04-04T10:25:49.549Z,53.86
2023-04-04T10:28:21.662Z,55.67
2023-04-04T10:31:05.862Z,55.49
2023-04-04T10:33:47.110Z,55.42
2023-04-04T10:36:24.055Z,55.64
2023-04-04T10:39:07.776Z,53.93
2023-04-04T10:41:39.434Z,54.30
2023-04-04T10:44:19.216Z,53.74
2023-04-04T10:46:52.360Z,54.33
2023-04-04T10:49:24.498Z,53.89
2023-04-04T10:51:57.796Z,54.00
2023-04-04T10:54:32.367Z,55.12
2023-04-04T10:57:04.322Z,54.53
2023-04-04T10:59:35.156Z,54.49
2023-04-04T11:02:07.177Z,55.12
2023-04-04T11:04:42.982Z,54.99
2023-04-04T11:07:15.521Z,54.70
2023-04-04T11:09:54.089Z,54.42
2023-04-04T11:12:30.267Z,53.39
2023-04-04T11:15:10.668Z,54.02
2023-04-04T11:17:59.726Z,49.43
2023-04-04T11:20:35.359Z,54.12
2023-04-04T11:23:07.993Z,55.15
2023-04-04T11:25:43.521Z,54.19
2023-04-04T11:28:29.472Z,54.83
2023-04-04T11:31:36.124Z,50.92
2023-04-04T11:34:08.745Z,54.07
2023-04-04T11:36:58.202Z,54.01
2023-04-04T11:39:31.265Z,51.73
2023-04-04T11:42:10.637Z,52.83
2023-04-04T11:44:44.777Z,54.08
2023-04-04T11:47:16.124Z,53.51
2023-04-04T11:49:49.059Z,54.04
2023-04-04T11:52:21.385Z,53.44
2023-04-04T11:54:53.225Z,52.48
2023-04-04T11:57:27.414Z,53.47
2023-04-04T11:59:58.425Z,53.34
2023-04-04T12:02:32.378Z,52.97
2023-04-04T12:05:06.692Z,54.20
2023-04-04T12:07:37.214Z,39.96
2023-04-04T12:10:09.362Z,53.12
2023-04-04T12:12:43.262Z,54.17
2023-04-04T12:15:17.810Z,40.12
2023-04-04T12:17:51.336Z,52.62
2023-04-04T12:20:25.580Z,51.52
2023-04-04T12:22:56.351Z,38.89
2023-04-04T12:25:28.681Z,53.11
2023-04-04T12:28:02.942Z,54.22
2023-04-04T12:30:34.996Z,54.20
2023-04-04T12:33:06.426Z,53.64
2023-04-04T12:35:37.653Z,53.75
2023-04-04T12:38:11.134Z,51.87
2023-04-04T12:40:42.611Z,52.61
2023-04-04T12:43:21.381Z,52.53
2023-04-04T12:45:54.267Z,53.12
2023-04-04T12:48:30.659Z,52.60
2023-04-04T12:51:05.025Z,53.24
2023-04-04T12:53:36.190Z,52.98
2023-04-04T12:56:08.014Z,53.51
2023-04-04T12:58:41.675Z,54.22
2023-04-04T13:01:13.131Z,51.50
2023-04-04T13:03:44.754Z,52.57
2023-04-04T13:06:16.950Z,52.35
2023-04-04T13:08:55.272Z,53.01
2023-04-04T13:11:26.638Z,53.16
2023-04-04T13:14:07.066Z,53.40
2023-04-04T13:16:39.852Z,53.65
2023-04-04T13:19:10.616Z,52.38
2023-04-04T13:21:42.749Z,53.27
2023-04-04T13:24:13.593Z,52.99
2023-04-04T13:26:44.240Z,52.76
2023-04-04T13:29:17.574Z,52.98
2023-04-04T13:31:48.149Z,53.29
2023-04-04T13:34:18.670Z,53.73
2023-04-04T13:36:49.659Z,53.82
2023-04-04T13:39:21.205Z,54.73
2023-04-04T13:41:52.068Z,55.01
2023-04-04T13:44:26.809Z,53.79
2023-04-04T13:46:57.889Z,53.35
2023-04-04T13:49:28.645Z,53.74
2023-04-04T13:51:59.313Z,53.99
2023-04-04T13:54:30.053Z,53.90
2023-04-04T13:57:01.335Z,53.79
2023-04-04T13:59:35.128Z,54.53
2023-04-04T14:02:06.347Z,54.65
2023-04-04T14:04:36.946Z,55.55
2023-04-04T14:07:08.168Z,55.21
2023-04-04T14:09:38.997Z,54.23
2023-04-04T14:12:10.353Z,53.23
2023-04-04T14:14:43.798Z,52.27
2023-04-04T14:17:14.497Z,52.52
2023-04-04T14:19:46.515Z,54.24
2023-04-04T14:22:17.132Z,54.92
2023-04-04T14:24:51.851Z,54.61
2023-04-04T14:27:24.726Z,53.93
2023-04-04T14:29:59.913Z,53.19
2023-04-04T14:32:33.328Z,52.31
2023-04-04T14:35:06.835Z,53.05
2023-04-04T14:37:37.813Z,53.37
2023-04-04T14:40:09.869Z,53.83
2023-04-04T14:42:42.592Z,54.88
2023-04-04T14:45:17.830Z,54.52
2023-04-04T14:47:48.489Z,54.29
2023-04-04T14:50:19.152Z,53.57
2023-04-04T14:52:53.014Z,53.28
2023-04-04T14:55:23.718Z,52.68
2023-04-04T14:58:02.575Z,53.99
2023-04-04T15:00:36.423Z,52.27
2023-04-04T15:03:08.657Z,52.33
2023-04-04T15:05:39.925Z,52.71
2023-04-04T15:08:11.010Z,52.60
2023-04-04T15:10:41.898Z,52.75
2023-04-04T15:13:12.768Z,53.36
2023-04-04T15:15:46.251Z,53.36
2023-04-04T15:18:18.072Z,53.27
2023-04-04T15:20:48.903Z,52.15
2023-04-04T15:23:19.483Z,53.37
2023-04-04T15:25:50.321Z,54.14
2023-04-04T15:28:21.000Z,54.14
2023-04-04T15:30:54.309Z,53.74
2023-04-04T15:33:24.954Z,53.58
2023-04-04T15:35:55.519Z,52.29
2023-04-04T15:38:26.216Z,53.46
2023-04-04T15:40:58.105Z,52.77
2023-04-04T15:43:28.677Z,52.46
2023-04-04T15:46:01.830Z,53.72
2023-04-04T15:48:32.424Z,53.57
2023-04-04T15:51:05.209Z,53.75
2023-04-04T15:53:36.658Z,53.64
2023-04-04T15:56:07.415Z,53.95
2023-04-04T15:58:38.051Z,54.10
2023-04-04T16:01:12.400Z,53.87
2023-04-04T16:03:43.126Z,54.18
2023-04-04T16:06:13.920Z,54.35
2023-04-04T16:08:45.532Z,52.81
2023-04-04T16:11:17.178Z,53.62
2023-04-04T16:13:47.740Z,54.00
2023-04-04T16:16:21.111Z,54.42
2023-04-04T16:18:51.792Z,54.48
2023-04-04T16:21:22.447Z,55.24
2023-04-04T16:23:53.061Z,55.34
2023-04-04T16:26:23.888Z,55.28
2023-04-04T16:28:54.625Z,55.06
2023-04-04T16:31:27.870Z,55.39
2023-04-04T16:33:58.654Z,54.77
2023-04-04T16:36:29.224Z,54.77
2023-04-04T16:39:00.233Z,54.87
2023-04-04T16:41:31.079Z,54.79
2023-04-04T16:44:02.448Z,55.06
2023-04-04T16:46:35.821Z,55.21
2023-04-04T16:49:06.935Z,55.64
2023-04-04T16:51:37.551Z,55.69
2023-04-04T16:54:08.710Z,55.57
2023-04-04T16:56:39.372Z,55.70
2023-04-04T16:59:10.380Z,55.33
2023-04-04T17:01:49.149Z,55.27
2023-04-04T17:04:20.141Z,55.53
2023-04-04T17:06:50.913Z,55.61
2023-04-04T17:09:21.976Z,55.79
2023-04-04T17:11:52.901Z,55.39
2023-04-04T17:14:24.048Z,55.51
2023-04-04T17:17:00.472Z,55.60
2023-04-04T17:19:32.243Z,55.43
2023-04-04T17:22:02.906Z,55.65
2023-04-04T17:24:33.703Z,55.86
2023-04-04T17:27:05.223Z,56.06
2023-04-04T17:29:36.259Z,55.40
2023-04-04T17:32:09.547Z,55.46
2023-04-04T17:34:40.444Z,55.48
2023-04-04T17:37:11.800Z,55.68
2023-04-04T17:39:45.452Z,55.76
2023-04-04T17:42:16.522Z,55.71
2023-04-04T17:44:47.529Z,55.56
2023-04-04T17:47:21.387Z,55.75
2023-04-04T17:49:52.713Z,55.82
2023-04-04T17:52:23.978Z,55.48
2023-04-04T17:54:55.092Z,55.52
2023-04-04T17:57:25.716Z,55.71
2023-04-04T17:59:56.825Z,56.01
2023-04-04T18:02:30.182Z,55.86
2023-04-04T18:05:01.571Z,56.11
2023-04-04T18:07:32.331Z,55.83
2023-04-04T18:10:03.106Z,56.27
2023-04-04T18:12:35.733Z,55.96
2023-04-04T18:15:07.648Z,55.99
2023-04-04T18:17:42.381Z,56.07
2023-04-04T18:20:27.674Z,55.86
2023-04-04T18:23:04.264Z,56.15
2023-04-04T18:25:36.145Z,56.34
2023-04-04T18:28:06.851Z,56.01
2023-04-04T18:30:39.260Z,56.01
2023-04-04T18:33:13.530Z,56.41
2023-04-04T18:35:44.378Z,56.21
2023-04-04T18:38:15.181Z,55.87
2023-04-04T18:40:48.102Z,56.16
2023-04-04T18:43:18.689Z,55.85
2023-04-04T18:45:49.646Z,55.61
2023-04-04T18:48:25.129Z,55.74
2023-04-04T18:50:55.602Z,55.72
2023-04-04T18:53:29.447Z,55.85
2023-04-04T18:56:00.487Z,55.99
2023-04-04T18:58:31.569Z,55.96
2023-04-04T19:01:02.250Z,56.28
2023-04-04T19:03:42.241Z,56.06
2023-04-04T19:06:14.841Z,56.05
2023-04-04T19:08:47.051Z,56.02
2023-04-04T19:11:18.149Z,56.15
2023-04-04T19:13:48.635Z,56.11
2023-04-04T19:16:19.199Z,56.24
2023-04-04T19:18:52.331Z,55.95
2023-04-04T19:21:22.906Z,56.15
2023-04-04T19:23:53.551Z,55.96
2023-04-04T19:26:24.304Z,55.83
2023-04-04T19:28:54.941Z,56.17
2023-04-04T19:31:30.293Z,56.18
2023-04-04T19:34:05.902Z,56.22
2023-04-04T19:36:39.356Z,56.06
2023-04-04T19:39:11.966Z,56.04
2023-04-04T19:41:43.847Z,55.97
2023-04-04T19:44:20.614Z,55.70
2023-04-04T19:46:53.254Z,55.78
2023-04-04T19:49:30.829Z,56.01
2023-04-04T19:52:04.506Z,56.27
2023-04-04T19:54:41.513Z,56.19
2023-04-04T19:57:22.038Z,56.14
2023-04-04T20:00:05.391Z,56.24
2023-04-04T20:02:53.007Z,55.91
2023-04-04T20:06:05.509Z,55.72
2023-04-04T20:08:42.387Z,56.28
2023-04-04T20:11:14.501Z,55.99
2023-04-04T20:13:46.520Z,55.73
2023-04-04T20:16:18.640Z,56.28
2023-04-04T20:18:49.827Z,56.48
2023-04-04T20:21:22.014Z,56.75
2023-04-04T20:23:56.739Z,57.22
2023-04-04T20:26:51.739Z,56.96
2023-04-04T20:29:23.462Z,53.39
2023-04-04T20:31:55.791Z,56.47
2023-04-04T20:34:42.032Z,57.10
2023-04-04T20:37:16.304Z,57.16
2023-04-04T20:39:52.237Z,57.19
2023-04-04T20:42:35.647Z,57.08
2023-04-04T20:45:31.997Z,57.11
2023-04-04T20:48:06.625Z,57.16
2023-04-04T20:50:48.997Z,57.41
2023-04-04T20:53:27.595Z,57.42
2023-04-04T20:56:01.186Z,57.33
2023-04-04T20:58:33.427Z,57.25
2023-04-04T21:01:04.542Z,57.42
2023-04-04T21:03:38.281Z,57.58
2023-04-04T21:06:18.120Z,57.35
2023-04-04T21:08:50.776Z,57.58
2023-04-04T21:11:30.192Z,57.45
2023-04-04T21:14:01.136Z,57.75
2023-04-04T21:16:32.418Z,57.67
2023-04-04T21:19:04.456Z,57.78
2023-04-04T21:21:36.730Z,57.79
2023-04-04T21:24:12.872Z,58.01
2023-04-04T21:26:46.395Z,57.91
2023-04-04T21:29:24.383Z,58.07
2023-04-04T21:31:56.600Z,57.98
2023-04-04T21:34:29.896Z,58.21
2023-04-04T21:37:04.484Z,58.15
2023-04-04T21:39:35.264Z,58.10
2023-04-04T21:42:09.397Z,58.02
2023-04-04T21:44:40.549Z,58.23
2023-04-04T21:47:12.608Z,58.32
2023-04-04T21:49:44.533Z,58.22
2023-04-04T21:52:15.286Z,58.37
2023-04-04T21:54:46.024Z,58.14
2023-04-04T21:57:19.295Z,58.16
2023-04-04T21:59:49.929Z,58.34
2023-04-04T22:02:20.663Z,58.47
2023-04-04T22:04:51.892Z,58.31
2023-04-04T22:07:22.735Z,58.31
2023-04-04T22:09:53.313Z,58.19
2023-04-04T22:12:26.463Z,58.39
2023-04-04T22:14:58.934Z,58.66
2023-04-04T22:17:29.462Z,58.82
2023-04-04T22:20:07.720Z,58.83
2023-04-04T22:22:39.618Z,58.89
2023-04-04T22:25:11.420Z,59.03
2023-04-04T22:27:44.758Z,58.73
2023-04-04T22:30:16.424Z,58.79
2023-04-04T22:32:47.499Z,58.75
2023-04-04T22:35:18.513Z,58.81
2023-04-04T22:37:49.289Z,58.80
2023-04-04T22:40:20.129Z,59.11
2023-04-04T22:42:53.340Z,59.13
2023-04-04T22:45:24.122Z,58.94
2023-04-04T22:47:55.153Z,59.14
2023-04-04T22:50:26.939Z,59.37
2023-04-04T22:52:58.938Z,59.35
2023-04-04T22:55:30.384Z,59.49
2023-04-04T22:58:03.644Z,59.50
2023-04-04T23:00:34.304Z,59.66
2023-04-04T23:03:06.402Z,60.04
2023-04-04T23:05:37.428Z,59.84
2023-04-04T23:08:08.704Z,59.77
2023-04-04T23:10:39.914Z,59.81
2023-04-04T23:13:13.375Z,59.98
2023-04-04T23:15:45.327Z,59.85
2023-04-04T23:18:16.266Z,59.97
2023-04-04T23:20:47.637Z,60.01
2023-04-04T23:23:18.245Z,60.28
2023-04-04T23:25:48.854Z,60.12
2023-04-04T23:28:22.117Z,60.38
2023-04-04T23:30:53.000Z,60.06
2023-04-04T23:33:26.250Z,60.44
2023-04-04T23:38:27.607Z,60.76
2023-04-04T23:40:58.693Z,60.74
2023-04-04T23:43:33.144Z,60.63
2023-04-04T23:46:04.202Z,60.70
2023-04-04T23:48:35.633Z,60.95
2023-04-04T23:51:08.683Z,60.85
2023-04-04T23:53:39.492Z,61.02
2023-04-04T23:56:11.193Z,61.13
2023-04-04T23:58:45.066Z,61.10
